PWSweather.com
Personal Weather Stations
Station Observations
INORDPAS37
Bondues, BonduesFR 59910

BonduesBonduesFR 59910

Lat: 50.7, Lon: 3.09

Elevation: 66

Station Type: NetAtmo

Latest ConditionsUpdated 2:39:00 PM GMT+01:01 Monday, Jun 26, 2017
Currently Today's Max Today's Min Today's Average
Temperature 79.3°F26.3°C 79.3°F26.3°C 59.4°F15.2°C 65.8°F18.8°C
Dew Point 55.8°F13.2°C 56.1°F13.4°C 45.9°F7.7°C 50.3°F10.2°C
Winds 1.9 mph NNW3.1 kmh NNW 2.5 mph WSW4.0 kmh WSW - 1.6 mph 2.6 kmh
Wind Gusts -- 7.4 mph11.9 kmh - -
Humidity 45% 69% 45% 62%
Pressure 29.94 in1013.9 mb 29.98 in1015.2 mb 29.94 in1013.9 mb -
Hour Temp Dew Point Humidity Winds Wind Gusts Pressure Precip Precip Rate Daily Precip Total
02:39 PM 79.3°F26.3°C 55.8°F13.2°C 45% 1.9 mph NNW3.1 kmh NNW -- 29.94 in1013.9 mb 0.00 in0.0 mm 0.00 in0.0 mm 0.00 in0.0 mm
02:20 PM 79.2°F26.2°C 56.1°F13.4°C 46% 1.3 mph NNW2.1 kmh NNW 4.3 mph6.9 kmh 29.94 in1013.9 mb 0.00 in0.0 mm 0.00 in0.0 mm 0.00 in0.0 mm
01:59 PM 78.4°F25.8°C 55.4°F13.0°C 46% 1.8 mph NNW2.9 kmh NNW 5.6 mph9.0 kmh 29.94 in1013.9 mb 0.00 in0.0 mm 0.00 in0.0 mm 0.00 in0.0 mm
01:39 PM 77.9°F25.5°C 55.4°F13.0°C 47% 1.2 mph W1.9 kmh W -- 29.95 in1014.2 mb 0.00 in0.0 mm 0.00 in0.0 mm 0.00 in0.0 mm
01:20 PM 77.0°F25.0°C 54.9°F12.7°C 48% 0.7 mph SE1.1 kmh SE 2.5 mph4.0 kmh 29.96 in1014.6 mb 0.00 in0.0 mm 0.00 in0.0 mm 0.00 in0.0 mm
12:59 PM 76.8°F24.9°C 54.9°F12.7°C 48% 1.3 mph SE2.1 kmh SE 3.1 mph5.0 kmh 29.96 in1014.6 mb 0.00 in0.0 mm 0.00 in0.0 mm 0.00 in0.0 mm
12:40 PM 75.9°F24.4°C 54.3°F12.4°C 49% 1.9 mph NW3.1 kmh NW -- 29.97 in1014.9 mb 0.00 in0.0 mm 0.00 in0.0 mm 0.00 in0.0 mm
12:19 PM 74.3°F23.5°C 53.2°F11.8°C 50% 1.8 mph W2.9 kmh W 7.4 mph11.9 kmh 29.97 in1014.9 mb 0.00 in0.0 mm 0.00 in0.0 mm 0.00 in0.0 mm
11:59 AM 74.8°F23.8°C 54.3°F12.4°C 51% 1.8 mph NW2.9 kmh NW 4.9 mph7.9 kmh 29.97 in1014.9 mb 0.00 in0.0 mm 0.00 in0.0 mm 0.00 in0.0 mm
11:40 AM 73.6°F23.1°C 53.4°F11.9°C 52% 1.2 mph SW1.9 kmh SW -- 29.98 in1015.2 mb 0.00 in0.0 mm 0.00 in0.0 mm 0.00 in0.0 mm
11:19 AM 73.8°F23.2°C 53.6°F12.0°C 52% 1.3 mph W2.1 kmh W 2.5 mph4.0 kmh 29.98 in1015.2 mb 0.00 in0.0 mm 0.00 in0.0 mm 0.00 in0.0 mm
11:00 AM 74.1°F23.4°C 54.5°F12.5°C 53% 1.3 mph SE2.1 kmh SE 2.5 mph4.0 kmh 29.97 in1014.9 mb 0.00 in0.0 mm 0.00 in0.0 mm 0.00 in0.0 mm
10:39 AM 72.9°F22.7°C 54.1°F12.3°C 55% 1.2 mph E1.9 kmh E -- 29.97 in1014.9 mb 0.00 in0.0 mm 0.00 in0.0 mm 0.00 in0.0 mm
10:19 AM 71.8°F22.1°C 53.6°F12.0°C 56% 1.3 mph NW2.1 kmh NW 3.1 mph5.0 kmh 29.96 in1014.6 mb 0.00 in0.0 mm 0.00 in0.0 mm 0.00 in0.0 mm
09:59 AM 71.6°F22.0°C 54.1°F12.3°C 58% 1.8 mph NE2.9 kmh NE 4.3 mph6.9 kmh 29.96 in1014.6 mb 0.00 in0.0 mm 0.00 in0.0 mm 0.00 in0.0 mm
09:39 AM 70.7°F21.5°C 54.1°F12.3°C 60% 1.2 mph N1.9 kmh N -- 29.96 in1014.6 mb 0.00 in0.0 mm 0.00 in0.0 mm 0.00 in0.0 mm
09:19 AM 69.4°F20.8°C 54.3°F12.4°C 63% 1.8 mph NNW2.9 kmh NNW 4.9 mph7.9 kmh 29.96 in1014.6 mb 0.00 in0.0 mm 0.00 in0.0 mm 0.00 in0.0 mm
08:59 AM 67.6°F19.8°C 53.4°F11.9°C 65% 1.8 mph NW2.9 kmh NW 5.6 mph9.0 kmh 29.97 in1014.9 mb 0.00 in0.0 mm 0.00 in0.0 mm 0.00 in0.0 mm
08:39 AM 65.8°F18.8°C 51.6°F10.9°C 65% 1.9 mph NW3.1 kmh NW -- 29.97 in1014.9 mb 0.00 in0.0 mm 0.00 in0.0 mm 0.00 in0.0 mm
08:18 AM 64.9°F18.3°C 51.6°F10.9°C 67% 1.3 mph NW2.1 kmh NW 3.8 mph6.1 kmh 29.97 in1014.9 mb 0.00 in0.0 mm 0.00 in0.0 mm 0.00 in0.0 mm
07:58 AM 63.9°F17.7°C 51.1°F10.6°C 68% 1.3 mph NW2.1 kmh NW 3.1 mph5.0 kmh 29.97 in1014.9 mb 0.00 in0.0 mm 0.00 in0.0 mm 0.00 in0.0 mm
07:38 AM 63.1°F17.3°C 50.4°F10.2°C 68% 1.2 mph WNW1.9 kmh WNW -- 29.98 in1015.2 mb 0.00 in0.0 mm 0.00 in0.0 mm 0.00 in0.0 mm
07:18 AM 62.2°F16.8°C 49.8°F9.9°C 69% 1.3 mph WNW2.1 kmh WNW 3.8 mph6.1 kmh 29.97 in1014.9 mb 0.00 in0.0 mm 0.00 in0.0 mm 0.00 in0.0 mm
06:58 AM 61.3°F16.3°C 49.1°F9.5°C 69% 1.3 mph WNW2.1 kmh WNW 4.3 mph6.9 kmh 29.97 in1014.9 mb 0.00 in0.0 mm 0.00 in0.0 mm 0.00 in0.0 mm
06:37 AM 60.6°F15.9°C 48.4°F9.1°C 69% 1.2 mph W1.9 kmh W -- 29.96 in1014.6 mb 0.00 in0.0 mm 0.00 in0.0 mm 0.00 in0.0 mm
06:18 AM 60.1°F15.6°C 47.8°F8.8°C 69% 1.8 mph WNW2.9 kmh WNW 4.9 mph7.9 kmh 29.96 in1014.6 mb 0.00 in0.0 mm 0.00 in0.0 mm 0.00 in0.0 mm
05:57 AM 59.5°F15.3°C 47.3°F8.5°C 69% 1.3 mph W2.1 kmh W 3.1 mph5.0 kmh 29.96 in1014.6 mb 0.00 in0.0 mm 0.00 in0.0 mm 0.00 in0.0 mm
05:37 AM 59.4°F15.2°C 47.1°F8.4°C 69% 1.9 mph W3.1 kmh W -- 29.96 in1014.6 mb 0.00 in0.0 mm 0.00 in0.0 mm 0.00 in0.0 mm
05:16 AM 59.4°F15.2°C 47.1°F8.4°C 69% 2.5 mph WSW4.0 kmh WSW 4.9 mph7.9 kmh 29.96 in1014.6 mb 0.00 in0.0 mm 0.00 in0.0 mm 0.00 in0.0 mm
04:56 AM 59.4°F15.2°C 47.1°F8.4°C 69% 1.8 mph WSW2.9 kmh WSW 3.8 mph6.1 kmh 29.96 in1014.6 mb 0.00 in0.0 mm 0.00 in0.0 mm 0.00 in0.0 mm
04:51 AM 59.5°F15.3°C 47.3°F8.5°C 69% 1.2 mph WSW1.9 kmh WSW -- 29.95 in1014.2 mb 0.00 in0.0 mm 0.00 in0.0 mm 0.00 in0.0 mm
04:36 AM 59.5°F15.3°C 47.3°F8.5°C 69% 1.3 mph WSW2.1 kmh WSW 3.8 mph6.1 kmh 29.95 in1014.2 mb 0.00 in0.0 mm 0.00 in0.0 mm 0.00 in0.0 mm
04:15 AM 59.7°F15.4°C 47.1°F8.4°C 68% 1.3 mph W2.1 kmh W 3.8 mph6.1 kmh 29.94 in1013.9 mb 0.00 in0.0 mm 0.00 in0.0 mm 0.00 in0.0 mm
03:56 AM 59.9°F15.5°C 47.3°F8.5°C 68% 1.3 mph W2.1 kmh W 3.1 mph5.0 kmh 29.94 in1013.9 mb 0.00 in0.0 mm 0.00 in0.0 mm 0.00 in0.0 mm
03:51 AM 59.9°F15.5°C 47.3°F8.5°C 68% 1.2 mph WSW1.9 kmh WSW -- 29.94 in1013.9 mb 0.00 in0.0 mm 0.00 in0.0 mm 0.00 in0.0 mm
03:35 AM 59.9°F15.5°C 47.3°F8.5°C 68% 1.3 mph WSW2.1 kmh WSW 3.1 mph5.0 kmh 29.94 in1013.9 mb 0.00 in0.0 mm 0.00 in0.0 mm 0.00 in0.0 mm
03:25 AM 59.9°F15.5°C 47.3°F8.5°C 68% 1.8 mph W2.9 kmh W 4.3 mph6.9 kmh 29.95 in1014.2 mb 0.00 in0.0 mm 0.00 in0.0 mm 0.00 in0.0 mm
03:05 AM 59.9°F15.5°C 47.3°F8.5°C 68% 1.8 mph WSW2.9 kmh WSW 4.3 mph6.9 kmh 29.94 in1013.9 mb 0.00 in0.0 mm 0.00 in0.0 mm 0.00 in0.0 mm
02:45 AM 60.1°F15.6°C 47.5°F8.6°C 68% 1.9 mph WSW3.1 kmh WSW -- 29.95 in1014.2 mb 0.00 in0.0 mm 0.00 in0.0 mm 0.00 in0.0 mm
02:24 AM 59.9°F15.5°C 47.3°F8.5°C 68% 2.5 mph W4.0 kmh W 5.6 mph9.0 kmh 29.96 in1014.6 mb 0.00 in0.0 mm 0.00 in0.0 mm 0.00 in0.0 mm
02:05 AM 59.7°F15.4°C 46.8°F8.2°C 67% 1.8 mph WSW2.9 kmh WSW 4.3 mph6.9 kmh 29.96 in1014.6 mb 0.00 in0.0 mm 0.00 in0.0 mm 0.00 in0.0 mm
01:44 AM 59.4°F15.2°C 46.4°F8.0°C 67% 1.9 mph WSW3.1 kmh WSW -- 29.96 in1014.6 mb 0.00 in0.0 mm 0.00 in0.0 mm 0.00 in0.0 mm
01:24 AM 59.4°F15.2°C 46.4°F8.0°C 67% 1.8 mph WSW2.9 kmh WSW 4.9 mph7.9 kmh 29.96 in1014.6 mb 0.00 in0.0 mm 0.00 in0.0 mm 0.00 in0.0 mm
01:04 AM 59.4°F15.2°C 45.9°F7.7°C 66% 1.8 mph SW2.9 kmh SW 6.9 mph11.1 kmh 29.95 in1014.2 mb 0.00 in0.0 mm 0.00 in0.0 mm 0.00 in0.0 mm
12:44 AM 59.5°F15.3°C 46.0°F7.8°C 66% 1.9 mph WSW3.1 kmh WSW -- 29.95 in1014.2 mb 0.00 in0.0 mm 0.00 in0.0 mm 0.00 in0.0 mm
12:24 AM 59.7°F15.4°C 45.9°F7.7°C 65% 2.5 mph WSW4.0 kmh WSW 6.9 mph11.1 kmh 29.95 in1014.2 mb 0.00 in0.0 mm 0.00 in0.0 mm 0.00 in0.0 mm
12:03 AM 60.1°F15.6°C 46.2°F7.9°C 65% 2.5 mph WSW4.0 kmh WSW 7.4 mph11.9 kmh 29.95 in1014.2 mb 0.00 in0.0 mm 0.00 in0.0 mm 0.00 in0.0 mm